Kinei Maru No.18 — JD3019 — position and weather

sailwx.info

Track history (hours):
 
Tides and Currents Weather Stations Pressure Air Temp Water Temp Dewpoint Dewpoint Depression Visibility Wind Speed Wind Dir Waves Ship Positions

Kinei Maru No.18

Last reported at 2017-Nov-23 05:00 UTC. Time now 2017-Nov-23 05:24 UTC.
Position N 34°10' E 135°09'.

Length 74 m; draft 3 m.

MMSI: 431000530.

Date/timePositionNaut miles runAvg speedWind from/ knotsBaromVisibWave heightAir tempDewpointWater temp
2017-Nov-23 05:00N 34°10' E 135°09'0 0.0
2017-Nov-23 04:30N 34°10' E 135°09'0 0.0
2017-Nov-23 04:00N 34°10' E 135°09'0 0.0
2017-Nov-23 03:30N 34°10' E 135°09'0 0.0
2017-Nov-23 03:00N 34°10' E 135°09'0 0.0
2017-Nov-23 02:30N 34°10' E 135°09'0 0.0
2017-Nov-23 02:00N 34°10' E 135°09'0 0.0
2017-Nov-23 01:30N 34°10' E 135°09'0 0.0
2017-Nov-23 01:00N 34°10' E 135°09'0 0.0
2017-Nov-23 00:30N 34°10' E 135°09'0 0.0
2017-Nov-23 00:00N 34°10' E 135°09'0 0.0
2017-Nov-22 23:30N 34°10' E 135°09'0 0.1
2017-Nov-22 23:00N 34°10' E 135°09'3 6.5
2017-Nov-22 22:30N 34°12' E 135°06'2 4.7
2017-Nov-22 22:01N 34°15' E 135°07'0 0.1
2017-Nov-22 21:30N 34°15' E 135°07'0 0.0
2017-Nov-22 21:00N 34°15' E 135°07'0 0.0
2017-Nov-22 20:30N 34°15' E 135°07'0 0.0
2017-Nov-22 20:00N 34°15' E 135°07'0 0.0
2017-Nov-22 19:30N 34°15' E 135°07'  
2017-Nov-19 23:40N 34°58' E 139°24'211.2
2017-Nov-19 23:30N 34°59' E 139°26'711.5
2017-Nov-19 22:55N 35°02' E 139°33'511.2
2017-Nov-19 22:30N 35°05' E 139°38'611.3
2017-Nov-19 22:00N 35°08' E 139°43'611.6
2017-Nov-19 21:30N 35°14' E 139°46'511.0
2017-Nov-19 21:00N 35°19' E 139°43'510.8
2017-Nov-19 20:30N 35°24' E 139°42'4 8.7
2017-Nov-19 20:00N 35°25' E 139°48'5 9.2
2017-Nov-19 19:30N 35°21' E 139°51'0 0.0
2017-Nov-19 07:56N 35°21' E 139°51'1 2.1
2017-Nov-19 07:30N 35°22' E 139°50'1 1.8
2017-Nov-19 07:00N 35°22' E 139°49'0 0.0
2017-Nov-19 06:30N 35°22' E 139°49'0 0.0
2017-Nov-19 06:00N 35°22' E 139°49'0 0.0
2017-Nov-19 05:30N 35°22' E 139°49'0 0.1
2017-Nov-19 05:01N 35°22' E 139°49'0 0.0
2017-Nov-19 04:30N 35°22' E 139°49'0 0.0
2017-Nov-19 04:01N 35°22' E 139°49'0 0.0
2017-Nov-19 03:30N 35°22' E 139°49'0 0.0
2017-Nov-19 03:01N 35°22' E 139°49'0 0.0
2017-Nov-19 02:31N 35°22' E 139°49'0 0.0
2017-Nov-19 02:01N 35°22' E 139°49'0 0.0
2017-Nov-19 01:31N 35°22' E 139°49'0 0.0
2017-Nov-19 01:00N 35°22' E 139°49'0 0.0
2017-Nov-19 00:31N 35°22' E 139°49'0 0.1
2017-Nov-19 00:00N 35°22' E 139°49'0 0.0
2017-Nov-18 23:30N 35°22' E 139°49'0 0.0
2017-Nov-18 23:01N 35°22' E 139°49'0 0.0
2017-Nov-18 22:30N 35°22' E 139°49'0 0.0
2017-Nov-18 22:01N 35°22' E 139°49'0 0.0
2017-Nov-18 21:30N 35°22' E 139°49'0 0.0
2017-Nov-18 21:00N 35°22' E 139°49'0 0.0
2017-Nov-18 20:30N 35°22' E 139°49'0 0.0
2017-Nov-18 20:01N 35°22' E 139°49'0 0.0
2017-Nov-18 19:30N 35°22' E 139°49'0 0.0
2017-Nov-18 19:00N 35°22' E 139°49'0 0.0
2017-Nov-18 18:30N 35°22' E 139°49'0 0.0
2017-Nov-18 18:00N 35°22' E 139°49'0 0.0
2017-Nov-18 17:30N 35°22' E 139°49'0 0.0
2017-Nov-18 17:00N 35°22' E 139°49'0 0.0
2017-Nov-18 16:30N 35°22' E 139°49'0 0.0
2017-Nov-18 16:00N 35°22' E 139°49'0 0.0
2017-Nov-18 15:30N 35°22' E 139°49'0 0.0
2017-Nov-18 15:00N 35°22' E 139°49'0 0.0
2017-Nov-18 14:31N 35°22' E 139°49'0 0.0
2017-Nov-18 14:00N 35°22' E 139°49'0 0.1
2017-Nov-18 13:30N 35°22' E 139°49'0 0.1
2017-Nov-18 13:01N 35°22' E 139°49'0 0.1
2017-Nov-18 12:30N 35°22' E 139°49'0 0.0
2017-Nov-18 12:00N 35°22' E 139°49'0 0.0
2017-Nov-18 11:30N 35°22' E 139°49'0 0.0
2017-Nov-18 11:00N 35°22' E 139°49'0 0.0
2017-Nov-18 10:30N 35°22' E 139°49'0 0.0
2017-Nov-18 10:00N 35°22' E 139°49'0 0.0
2017-Nov-18 09:31N 35°22' E 139°49'6 9.2
2017-Nov-18 08:51N 35°28' E 139°50'10 2.2
2017-Nov-18 04:29N 35°37' E 139°48'3 6.0
2017-Nov-18 03:59N 35°35' E 139°51'1 1.7
2017-Nov-18 03:25N 35°35' E 139°52'0 0.0
2017-Nov-18 03:00N 35°35' E 139°52'0 0.0
2017-Nov-18 02:30N 35°35' E 139°52'0 0.0
2017-Nov-18 02:00N 35°35' E 139°52'0 0.0
2017-Nov-18 01:30N 35°35' E 139°52'0 0.0
2017-Nov-18 00:30N 35°35' E 139°52'0 0.0
2017-Nov-17 23:59N 35°35' E 139°52'0 0.0
2017-Nov-17 22:46N 35°35' E 139°52'0 0.2
2017-Nov-17 22:30N 35°35' E 139°52'0 0.0
2017-Nov-17 21:57N 35°35' E 139°52'0 0.0
2017-Nov-17 21:30N 35°35' E 139°52'0 0.0
2017-Nov-17 20:03N 35°35' E 139°52'0 0.0
2017-Nov-17 20:00N 35°35' E 139°52'0 0.0
2017-Nov-17 19:27N 35°35' E 139°52'0 0.8
2017-Nov-17 18:59N 35°35' E 139°53'510.4
2017-Nov-17 18:30N 35°30' E 139°52'611.3
2017-Nov-17 18:00N 35°26' E 139°48'611.2
2017-Nov-17 17:30N 35°21' E 139°45'510.5
2017-Nov-17 17:00N 35°16' E 139°47'611.1
2017-Nov-17 16:30N 35°10' E 139°46'510.9
2017-Nov-17 16:00N 35°05' E 139°45'611.5
2017-Nov-17 15:29N 34°59' E 139°43'  
Track history (hours):
 
Tides and Currents Weather Stations Pressure Air Temp Water Temp Dewpoint Dewpoint Depression Visibility Wind Speed Wind Dir Waves Ship Positions

Kinei Maru No.18

Last reported at 2017-Nov-23 05:00 UTC. Time now 2017-Nov-23 05:24 UTC.
Position N 34°10' E 135°09'.

Length 74 m; draft 3 m.

MMSI: 431000530.

Date/timePositionNaut miles runAvg speedWind from/ knotsBaromVisibWave heightAir tempDewpointWater temp
2017-Nov-23 05:00N 34°10' E 135°09'0 0.0
2017-Nov-23 04:30N 34°10' E 135°09'0 0.0
2017-Nov-23 04:00N 34°10' E 135°09'0 0.0
2017-Nov-23 03:30N 34°10' E 135°09'0 0.0
2017-Nov-23 03:00N 34°10' E 135°09'0 0.0
2017-Nov-23 02:30N 34°10' E 135°09'0 0.0
2017-Nov-23 02:00N 34°10' E 135°09'0 0.0
2017-Nov-23 01:30N 34°10' E 135°09'0 0.0
2017-Nov-23 01:00N 34°10' E 135°09'0 0.0
2017-Nov-23 00:30N 34°10' E 135°09'0 0.0
2017-Nov-23 00:00N 34°10' E 135°09'0 0.0
2017-Nov-22 23:30N 34°10' E 135°09'0 0.1
2017-Nov-22 23:00N 34°10' E 135°09'3 6.5
2017-Nov-22 22:30N 34°12' E 135°06'2 4.7
2017-Nov-22 22:01N 34°15' E 135°07'0 0.1
2017-Nov-22 21:30N 34°15' E 135°07'0 0.0
2017-Nov-22 21:00N 34°15' E 135°07'0 0.0
2017-Nov-22 20:30N 34°15' E 135°07'0 0.0
2017-Nov-22 20:00N 34°15' E 135°07'0 0.0
2017-Nov-22 19:30N 34°15' E 135°07'  
2017-Nov-19 23:40N 34°58' E 139°24'211.2
2017-Nov-19 23:30N 34°59' E 139°26'711.5
2017-Nov-19 22:55N 35°02' E 139°33'511.2
2017-Nov-19 22:30N 35°05' E 139°38'611.3
2017-Nov-19 22:00N 35°08' E 139°43'611.6
2017-Nov-19 21:30N 35°14' E 139°46'511.0
2017-Nov-19 21:00N 35°19' E 139°43'510.8
2017-Nov-19 20:30N 35°24' E 139°42'4 8.7
2017-Nov-19 20:00N 35°25' E 139°48'5 9.2
2017-Nov-19 19:30N 35°21' E 139°51'0 0.0
2017-Nov-19 07:56N 35°21' E 139°51'1 2.1
2017-Nov-19 07:30N 35°22' E 139°50'1 1.8
2017-Nov-19 07:00N 35°22' E 139°49'0 0.0
2017-Nov-19 06:30N 35°22' E 139°49'0 0.0
2017-Nov-19 06:00N 35°22' E 139°49'0 0.0
2017-Nov-19 05:30N 35°22' E 139°49'0 0.1
2017-Nov-19 05:01N 35°22' E 139°49'0 0.0
2017-Nov-19 04:30N 35°22' E 139°49'0 0.0
2017-Nov-19 04:01N 35°22' E 139°49'0 0.0
2017-Nov-19 03:30N 35°22' E 139°49'0 0.0
2017-Nov-19 03:01N 35°22' E 139°49'0 0.0
2017-Nov-19 02:31N 35°22' E 139°49'0 0.0
2017-Nov-19 02:01N 35°22' E 139°49'0 0.0
2017-Nov-19 01:31N 35°22' E 139°49'0 0.0
2017-Nov-19 01:00N 35°22' E 139°49'0 0.0
2017-Nov-19 00:31N 35°22' E 139°49'0 0.1
2017-Nov-19 00:00N 35°22' E 139°49'0 0.0
2017-Nov-18 23:30N 35°22' E 139°49'0 0.0
2017-Nov-18 23:01N 35°22' E 139°49'0 0.0
2017-Nov-18 22:30N 35°22' E 139°49'0 0.0
2017-Nov-18 22:01N 35°22' E 139°49'0 0.0
2017-Nov-18 21:30N 35°22' E 139°49'0 0.0
2017-Nov-18 21:00N 35°22' E 139°49'0 0.0
2017-Nov-18 20:30N 35°22' E 139°49'0 0.0
2017-Nov-18 20:01N 35°22' E 139°49'0 0.0
2017-Nov-18 19:30N 35°22' E 139°49'0 0.0
2017-Nov-18 19:00N 35°22' E 139°49'0 0.0
2017-Nov-18 18:30N 35°22' E 139°49'0 0.0
2017-Nov-18 18:00N 35°22' E 139°49'0 0.0
2017-Nov-18 17:30N 35°22' E 139°49'0 0.0
2017-Nov-18 17:00N 35°22' E 139°49'0 0.0
2017-Nov-18 16:30N 35°22' E 139°49'0 0.0
2017-Nov-18 16:00N 35°22' E 139°49'0 0.0
2017-Nov-18 15:30N 35°22' E 139°49'0 0.0
2017-Nov-18 15:00N 35°22' E 139°49'0 0.0
2017-Nov-18 14:31N 35°22' E 139°49'0 0.0
2017-Nov-18 14:00N 35°22' E 139°49'0 0.1
2017-Nov-18 13:30N 35°22' E 139°49'0 0.1
2017-Nov-18 13:01N 35°22' E 139°49'0 0.1
2017-Nov-18 12:30N 35°22' E 139°49'0 0.0
2017-Nov-18 12:00N 35°22' E 139°49'0 0.0
2017-Nov-18 11:30N 35°22' E 139°49'0 0.0
2017-Nov-18 11:00N 35°22' E 139°49'0 0.0
2017-Nov-18 10:30N 35°22' E 139°49'0 0.0
2017-Nov-18 10:00N 35°22' E 139°49'0 0.0
2017-Nov-18 09:31N 35°22' E 139°49'6 9.2
2017-Nov-18 08:51N 35°28' E 139°50'10 2.2
2017-Nov-18 04:29N 35°37' E 139°48'3 6.0
2017-Nov-18 03:59N 35°35' E 139°51'1 1.7
2017-Nov-18 03:25N 35°35' E 139°52'0 0.0
2017-Nov-18 03:00N 35°35' E 139°52'0 0.0
2017-Nov-18 02:30N 35°35' E 139°52'0 0.0
2017-Nov-18 02:00N 35°35' E 139°52'0 0.0
2017-Nov-18 01:30N 35°35' E 139°52'0 0.0
2017-Nov-18 00:30N 35°35' E 139°52'0 0.0
2017-Nov-17 23:59N 35°35' E 139°52'0 0.0
2017-Nov-17 22:46N 35°35' E 139°52'0 0.2
2017-Nov-17 22:30N 35°35' E 139°52'0 0.0
2017-Nov-17 21:57N 35°35' E 139°52'0 0.0
2017-Nov-17 21:30N 35°35' E 139°52'0 0.0
2017-Nov-17 20:03N 35°35' E 139°52'0 0.0
2017-Nov-17 20:00N 35°35' E 139°52'0 0.0
2017-Nov-17 19:27N 35°35' E 139°52'0 0.8
2017-Nov-17 18:59N 35°35' E 139°53'510.4
2017-Nov-17 18:30N 35°30' E 139°52'611.3
2017-Nov-17 18:00N 35°26' E 139°48'611.2
2017-Nov-17 17:30N 35°21' E 139°45'510.5
2017-Nov-17 17:00N 35°16' E 139°47'611.1
2017-Nov-17 16:30N 35°10' E 139°46'510.9
2017-Nov-17 16:00N 35°05' E 139°45'611.5
2017-Nov-17 15:29N 34°59' E 139°43'  

Dump ship's entire track history